Time;durP1;ratioP1;P1;durP2;ratioP2;P2;SDS_P1;SDS_P2;PMS_P1;PMS_P2;Temp;Humidity;BMP_temperature;BMP_pressure;BME280_temperature;BME280_humidity;BME280_pressure;Samples;Min_cycle;Max_cycle;Signal;HPM_P1;HPM_P2
2023/01/14 00:00:39;;;;;;;0.00;0.00;;;7.00;99.90;;;;;;5014381;28;20190;-66
2023/01/14 00:03:04;;;;;;;0.00;0.00;;;7.00;99.90;;;;;;5014940;28;20225;-66
2023/01/14 00:05:30;;;;;;;0.00;0.00;;;6.90;99.90;;;;;;5014644;28;20190;-66
2023/01/14 00:07:55;;;;;;;0.00;0.00;;;6.90;99.90;;;;;;5014754;28;20372;-66
2023/01/14 00:10:21;;;;;;;0.00;0.00;;;6.90;99.90;;;;;;5014408;28;20187;-65
2023/01/14 00:12:47;;;;;;;0.00;0.00;;;6.80;99.90;;;;;;5014750;28;20270;-65
2023/01/14 00:15:12;;;;;;;0.20;0.20;;;6.80;99.90;;;;;;5014581;28;20183;-65
2023/01/14 00:17:38;;;;;;;0.00;0.00;;;6.70;99.90;;;;;;5014332;28;20653;-65
2023/01/14 00:20:04;;;;;;;0.00;0.00;;;6.70;99.90;;;;;;5014152;28;20547;-66
2023/01/14 00:22:30;;;;;;;0.28;0.28;;;6.70;99.90;;;;;;5014410;28;20187;-66
2023/01/14 00:24:55;;;;;;;0.17;0.17;;;6.70;99.90;;;;;;5014651;28;20639;-66
2023/01/14 00:27:21;;;;;;;0.00;0.00;;;6.60;99.90;;;;;;5014270;28;20225;-65
2023/01/14 00:29:46;;;;;;;0.00;0.00;;;6.60;99.90;;;;;;5014656;28;20257;-66
2023/01/14 00:32:12;;;;;;;0.00;0.00;;;6.60;99.90;;;;;;5014283;28;20228;-65
2023/01/14 00:34:38;;;;;;;0.00;0.00;;;6.60;99.90;;;;;;5013971;28;20700;-65
2023/01/14 00:37:04;;;;;;;0.00;0.00;;;6.60;99.90;;;;;;5014112;28;20657;-65
2023/01/14 00:39:30;;;;;;;0.15;0.10;;;6.60;99.90;;;;;;5014300;28;20182;-66
2023/01/14 00:41:56;;;;;;;0.00;0.00;;;6.60;99.90;;;;;;5014266;28;20545;-66
2023/01/14 00:44:21;;;;;;;0.00;0.00;;;6.60;99.90;;;;;;5013874;28;20190;-66
2023/01/14 00:46:47;;;;;;;0.00;0.00;;;6.60;99.90;;;;;;5013946;28;20218;-66
2023/01/14 00:49:19;;;;;;;0.00;0.00;;;6.60;99.90;;;;;;5013751;28;20183;-66
2023/01/14 00:51:46;;;;;;;0.00;0.00;;;6.60;99.90;;;;;;5013714;28;20175;-65
2023/01/14 00:54:11;;;;;;;0.00;0.00;;;6.60;99.90;;;;;;5014047;28;20224;-65
2023/01/14 00:56:37;;;;;;;0.00;0.00;;;6.60;99.90;;;;;;5013773;28;20178;-65
2023/01/14 00:59:02;;;;;;;0.00;0.00;;;6.60;99.90;;;;;;5013616;28;20209;-65
2023/01/14 01:01:28;;;;;;;0.00;0.00;;;6.60;99.90;;;;;;5013692;28;20218;-66
2023/01/14 01:03:55;;;;;;;0.00;0.00;;;6.60;99.90;;;;;;5012435;28;20211;-65
2023/01/14 01:06:23;;;;;;;0.00;0.00;;;6.60;99.90;;;;;;5010617;28;20178;-65
2023/01/14 01:08:49;;;;;;;0.00;0.00;;;6.70;99.90;;;;;;5013247;28;20193;-65
2023/01/14 01:11:15;;;;;;;0.00;0.00;;;6.70;99.90;;;;;;5013483;28;20179;-65
2023/01/14 01:13:41;;;;;;;0.00;0.00;;;6.70;99.90;;;;;;5003962;28;20287;-65
2023/01/14 01:16:15;;;;;;;0.00;0.00;;;6.70;99.90;;;;;;5010680;28;20179;-65
2023/01/14 01:18:41;;;;;;;0.00;0.00;;;6.70;99.90;;;;;;5013403;28;20254;-65
2023/01/14 01:21:14;;;;;;;0.00;0.00;;;6.70;99.90;;;;;;5012880;28;20189;-66
2023/01/14 01:23:40;;;;;;;0.00;0.00;;;6.70;99.90;;;;;;5011715;28;20194;-66
2023/01/14 01:26:12;;;;;;;0.10;0.10;;;6.70;99.90;;;;;;5013451;28;20229;-67
2023/01/14 01:28:38;;;;;;;0.00;0.00;;;6.70;99.90;;;;;;5013086;28;20187;-67
2023/01/14 01:31:07;;;;;;;0.00;0.00;;;6.70;99.90;;;;;;4995303;28;20190;-67
2023/01/14 01:33:33;;;;;;;0.00;0.00;;;6.70;99.90;;;;;;5013266;28;20642;-66
2023/01/14 01:36:05;;;;;;;0.00;0.00;;;6.70;99.90;;;;;;5012859;28;20183;-67
2023/01/14 01:38:31;;;;;;;0.00;0.00;;;6.70;99.90;;;;;;5012462;28;20590;-67
2023/01/14 01:40:57;;;;;;;0.00;0.00;;;6.70;99.90;;;;;;5013023;28;20684;-66
2023/01/14 01:43:29;;;;;;;0.00;0.00;;;6.60;99.90;;;;;;4994498;28;20533;-66
2023/01/14 01:45:56;;;;;;;0.00;0.00;;;6.60;99.90;;;;;;4994817;28;20533;-66
2023/01/14 01:48:36;;;;;;;0.00;0.00;;;6.70;99.90;;;;;;5011798;28;20248;-66
2023/01/14 01:51:14;;;;;;;0.00;0.00;;;6.70;99.90;;;;;;5011166;28;20561;-66
2023/01/14 01:53:43;;;;;;;0.00;0.00;;;6.60;99.90;;;;;;5012155;28;20218;-66
2023/01/14 01:56:12;;;;;;;0.10;0.10;;;6.60;99.90;;;;;;5011711;28;20182;-66
2023/01/14 01:58:39;;;;;;;0.28;0.28;;;6.60;99.90;;;;;;5012396;28;20175;-67
2023/01/14 02:01:04;;;;;;;0.00;0.00;;;6.60;99.90;;;;;;5011899;28;20228;-66
2023/01/14 02:03:36;;;;;;;0.98;0.30;;;6.60;99.90;;;;;;5011786;28;20183;-67
2023/01/14 02:06:02;;;;;;;0.00;0.00;;;6.60;99.90;;;;;;5011784;28;20203;-67
2023/01/14 02:08:28;;;;;;;0.00;0.00;;;6.60;99.90;;;;;;5011743;28;20228;-67
2023/01/14 02:11:03;;;;;;;0.00;0.00;;;6.60;99.90;;;;;;4994408;28;20175;-66
2023/01/14 02:13:40;;;;;;;0.00;0.00;;;6.50;99.90;;;;;;5011515;28;20186;-66
2023/01/14 02:16:37;;;;;;;0.00;0.00;;;6.50;99.90;;;;;;5011455;28;20179;-66
2023/01/14 02:19:13;;;;;;;0.10;0.10;;;6.50;99.90;;;;;;5004235;28;20190;-67
2023/01/14 02:22:17;;;;;;;0.00;0.00;;;6.50;99.90;;;;;;5011008;28;20268;-66
2023/01/14 02:24:59;;;;;;;0.25;0.25;;;6.50;99.90;;;;;;4988660;28;20536;-66
2023/01/14 02:27:37;;;;;;;0.00;0.00;;;6.40;99.90;;;;;;4993984;28;20249;-66
2023/01/14 02:30:23;;;;;;;0.00;0.00;;;6.40;99.90;;;;;;5007298;28;20190;-64
2023/01/14 02:33:06;;;;;;;0.00;0.00;;;6.40;99.90;;;;;;5010686;28;20181;-64
2023/01/14 02:35:43;;;;;;;0.00;0.00;;;6.40;99.90;;;;;;5011413;28;20193;-63
2023/01/14 02:38:26;;;;;;;0.00;0.00;;;6.40;99.90;;;;;;5011198;28;20178;-64
2023/01/14 02:41:08;;;;;;;0.00;0.00;;;6.40;99.90;;;;;;5002541;28;20171;-64
2023/01/14 02:44:10;;;;;;;0.00;0.00;;;6.30;99.90;;;;;;5011485;28;20537;-64
2023/01/14 02:46:57;;;;;;;0.00;0.00;;;6.30;99.90;;;;;;5008952;28;20590;-64
2023/01/14 02:49:36;;;;;;;0.00;0.00;;;6.30;99.90;;;;;;5011337;28;20187;-65
2023/01/14 02:52:06;;;;;;;0.00;0.00;;;6.40;99.90;;;;;;5007419;28;20187;-65
2023/01/14 02:54:31;;;;;;;0.20;0.20;;;6.30;99.90;;;;;;5010519;28;20222;-66
2023/01/14 02:57:04;;;;;;;0.00;0.00;;;6.30;99.90;;;;;;5011447;28;20182;-65
2023/01/14 02:59:59;;;;;;;0.00;0.00;;;6.30;99.90;;;;;;5011458;28;20248;-65
2023/01/14 03:02:57;;;;;;;0.00;0.00;;;6.30;99.90;;;;;;4988327;28;20261;-65
2023/01/14 03:05:43;;;;;;;0.00;0.00;;;6.30;99.90;;;;;;4988054;28;20561;-65
2023/01/14 03:08:34;;;;;;;0.00;0.00;;;6.20;99.90;;;;;;5011663;28;20714;-65
2023/01/14 03:11:07;;;;;;;0.00;0.00;;;6.20;99.90;;;;;;5011750;28;20548;-65
2023/01/14 03:13:59;;;;;;;0.00;0.00;;;6.20;99.90;;;;;;5011496;28;20194;-65
2023/01/14 03:16:43;;;;;;;0.00;0.00;;;6.10;99.90;;;;;;5008530;28;20193;-65
2023/01/14 03:19:19;;;;;;;0.00;0.00;;;6.10;99.90;;;;;;5011763;28;20191;-65
2023/01/14 03:21:49;;;;;;;0.00;0.00;;;6.00;99.90;;;;;;4990595;28;20225;-65
2023/01/14 03:24:29;;;;;;;0.20;0.20;;;5.90;99.90;;;;;;5011791;28;20720;-65
2023/01/14 03:27:00;;;;;;;0.00;0.00;;;5.90;99.90;;;;;;5011520;28;20217;-65
2023/01/14 03:29:34;;;;;;;0.00;0.00;;;5.90;99.90;;;;;;5011536;28;20171;-65
2023/01/14 03:32:14;;;;;;;0.00;0.00;;;5.80;99.90;;;;;;5013704;28;20182;-65
2023/01/14 03:34:47;;;;;;;0.00;0.00;;;5.70;99.90;;;;;;5015142;28;20174;-65
2023/01/14 03:37:14;;;;;;;0.00;0.00;;;5.70;99.90;;;;;;5015458;28;20182;-65
2023/01/14 03:39:44;;;;;;;0.00;0.00;;;5.70;99.90;;;;;;5015264;28;20197;-66
2023/01/14 03:42:20;;;;;;;0.00;0.00;;;5.60;99.90;;;;;;4997758;28;20273;-65
2023/01/14 03:44:57;;;;;;;0.17;0.17;;;5.60;99.90;;;;;;5014925;28;20175;-65
2023/01/14 03:47:26;;;;;;;0.00;0.00;;;5.60;99.90;;;;;;5014907;28;20700;-65
2023/01/14 03:49:52;;;;;;;0.00;0.00;;;5.60;99.90;;;;;;5015198;28;20646;-65
2023/01/14 03:52:33;;;;;;;0.00;0.00;;;5.50;99.90;;;;;;5014958;28;20240;-65
2023/01/14 03:55:20;;;;;;;0.00;0.00;;;5.50;99.90;;;;;;5015067;28;20226;-65
2023/01/14 03:57:58;;;;;;;0.00;0.00;;;5.50;99.90;;;;;;5014473;28;20654;-65
2023/01/14 04:00:33;;;;;;;0.00;0.00;;;5.50;99.90;;;;;;5014271;28;20183;-65
2023/01/14 04:03:01;;;;;;;0.00;0.00;;;5.40;99.90;;;;;;4993652;28;20270;-65
2023/01/14 04:05:27;;;;;;;0.00;0.00;;;5.40;99.90;;;;;;5014266;28;20240;-65
2023/01/14 04:07:55;;;;;;;0.00;0.00;;;5.40;99.90;;;;;;5014622;28;20305;-65
2023/01/14 04:10:21;;;;;;;0.00;0.00;;;5.40;99.90;;;;;;5014713;28;20225;-65
2023/01/14 04:15:31;;;;;;;0.00;0.00;;;5.40;99.90;;;;;;5014126;28;20269;-65
2023/01/14 04:17:57;;;;;;;0.00;0.00;;;5.40;99.90;;;;;;5014557;28;20226;-66
2023/01/14 04:20:22;;;;;;;0.00;0.00;;;5.40;99.90;;;;;;5014213;28;20279;-66
2023/01/14 04:22:48;;;;;;;0.00;0.00;;;5.40;99.90;;;;;;5012268;28;20182;-66
2023/01/14 04:25:13;;;;;;;0.00;0.00;;;5.40;99.90;;;;;;5014674;28;20179;-66
2023/01/14 04:27:39;;;;;;;0.10;0.10;;;5.50;99.90;;;;;;5014177;28;20284;-66
2023/01/14 04:30:06;;;;;;;0.00;0.00;;;5.50;99.90;;;;;;5012101;28;20244;-66
2023/01/14 04:32:32;;;;;;;0.38;0.38;;;5.60;99.90;;;;;;5013704;28;20700;-66
2023/01/14 04:34:57;;;;;;;0.00;0.00;;;5.60;99.90;;;;;;5013813;28;20186;-66
2023/01/14 04:37:23;;;;;;;0.00;0.00;;;5.60;99.90;;;;;;5013529;28;20189;-66
2023/01/14 04:39:50;;;;;;;0.00;0.00;;;5.70;99.90;;;;;;5013940;28;20542;-66
2023/01/14 04:42:28;;;;;;;0.00;0.00;;;5.70;99.90;;;;;;4996367;28;20182;-66
2023/01/14 04:44:55;;;;;;;0.00;0.00;;;5.80;99.90;;;;;;5013762;28;20693;-66
2023/01/14 04:47:21;;;;;;;0.00;0.00;;;5.80;99.90;;;;;;5013794;28;20246;-66
2023/01/14 04:49:47;;;;;;;0.00;0.00;;;5.80;99.90;;;;;;5013601;28;20284;-66
2023/01/14 04:52:12;;;;;;;0.00;0.00;;;5.90;99.90;;;;;;5013749;28;20332;-66
2023/01/14 04:54:38;;;;;;;0.00;0.00;;;5.90;99.90;;;;;;5013114;28;20277;-66
2023/01/14 04:57:04;;;;;;;0.00;0.00;;;5.90;99.90;;;;;;5013746;28;20175;-66
2023/01/14 04:59:29;;;;;;;0.00;0.00;;;5.90;99.90;;;;;;5013604;28;20185;-66
2023/01/14 05:01:55;;;;;;;0.00;0.00;;;5.90;99.90;;;;;;5013441;28;20186;-66
2023/01/14 05:04:20;;;;;;;0.00;0.00;;;6.00;99.90;;;;;;5013358;28;20189;-66
2023/01/14 05:06:46;;;;;;;0.00;0.00;;;6.00;99.90;;;;;;5012523;28;20191;-66
2023/01/14 05:09:11;;;;;;;0.00;0.00;;;6.00;99.90;;;;;;5011320;28;20273;-66
2023/01/14 05:11:37;;;;;;;0.00;0.00;;;6.10;99.90;;;;;;5013638;28;20665;-65
2023/01/14 05:14:02;;;;;;;0.00;0.00;;;6.00;99.90;;;;;;5012620;28;20206;-66
2023/01/14 05:16:28;;;;;;;0.00;0.00;;;6.10;99.90;;;;;;4995267;28;20671;-65
2023/01/14 05:18:54;;;;;;;0.00;0.00;;;6.10;99.90;;;;;;5013361;28;20191;-66
2023/01/14 05:21:20;;;;;;;0.00;0.00;;;6.10;99.90;;;;;;5012988;28;20567;-66
2023/01/14 05:23:46;;;;;;;0.00;0.00;;;6.10;99.90;;;;;;5013234;28;20631;-65
2023/01/14 05:26:12;;;;;;;0.00;0.00;;;6.10;99.90;;;;;;5013337;28;20202;-66
2023/01/14 05:28:37;;;;;;;0.00;0.00;;;6.10;99.90;;;;;;5012703;28;20264;-66
2023/01/14 05:31:04;;;;;;;0.00;0.00;;;6.20;99.90;;;;;;5012578;28;20197;-65
2023/01/14 05:33:30;;;;;;;0.00;0.00;;;6.20;99.90;;;;;;5012078;28;20218;-66
2023/01/14 05:35:57;;;;;;;0.00;0.00;;;6.20;99.90;;;;;;5012209;28;20179;-66
2023/01/14 05:38:23;;;;;;;0.00;0.00;;;6.20;99.90;;;;;;5012859;28;20257;-66
2023/01/14 05:40:49;;;;;;;0.00;0.00;;;6.20;99.90;;;;;;5013064;28;20182;-66
2023/01/14 05:46:09;;;;;;;0.00;0.00;;;6.20;99.90;;;;;;4988436;28;20201;-66
2023/01/14 05:48:35;;;;;;;0.00;0.00;;;6.20;99.90;;;;;;5012624;28;20304;-66
2023/01/14 05:51:02;;;;;;;0.00;0.00;;;6.20;99.90;;;;;;5012994;28;20646;-66
2023/01/14 05:53:28;;;;;;;0.00;0.00;;;6.20;99.90;;;;;;5011928;28;20748;-65
2023/01/14 05:55:55;;;;;;;0.00;0.00;;;6.20;99.90;;;;;;5012684;28;20262;-66
2023/01/14 05:58:21;;;;;;;0.00;0.00;;;6.20;99.90;;;;;;5012695;28;20178;-66
2023/01/14 06:06:22;;;;;;;0.00;0.00;;;6.20;99.90;;;;;;5006057;28;20684;-66
2023/01/14 06:08:55;;;;;;;0.00;0.00;;;6.20;99.90;;;;;;5012090;28;20191;-66
2023/01/14 06:11:22;;;;;;;0.00;0.00;;;6.10;99.90;;;;;;5012378;28;20175;-66
2023/01/14 06:13:49;;;;;;;0.00;0.00;;;6.10;99.90;;;;;;5012303;28;20182;-66
2023/01/14 06:16:15;;;;;;;0.00;0.00;;;6.10;99.90;;;;;;5012412;28;20182;-65
2023/01/14 06:18:44;;;;;;;0.00;0.00;;;6.00;99.90;;;;;;5012332;28;20174;-66
2023/01/14 06:21:15;;;;;;;0.10;0.10;;;6.00;99.90;;;;;;5012224;28;20198;-66
2023/01/14 06:23:41;;;;;;;0.00;0.00;;;5.90;99.90;;;;;;5012109;28;20641;-66
2023/01/14 06:26:12;;;;;;;0.00;0.00;;;5.90;99.90;;;;;;5012190;28;20273;-66
2023/01/14 06:28:38;;;;;;;0.00;0.00;;;5.90;99.90;;;;;;5011750;28;20218;-66
2023/01/14 06:31:12;;;;;;;0.00;0.00;;;5.90;99.90;;;;;;5007660;28;20194;-66
2023/01/14 06:33:38;;;;;;;0.00;0.00;;;6.00;99.90;;;;;;5011045;28;20595;-66
2023/01/14 06:36:04;;;;;;;0.00;0.00;;;6.00;99.90;;;;;;5007837;28;20186;-66
2023/01/14 06:38:29;;;;;;;0.00;0.00;;;6.10;99.90;;;;;;4990940;28;20274;-66
2023/01/14 06:40:58;;;;;;;0.00;0.00;;;6.10;99.90;;;;;;4996113;28;20225;-66
2023/01/14 06:43:24;;;;;;;0.00;0.00;;;6.00;99.90;;;;;;4996323;28;20178;-66
2023/01/14 06:45:54;;;;;;;0.00;0.00;;;6.00;99.90;;;;;;5011472;28;20637;-65
2023/01/14 06:48:19;;;;;;;0.00;0.00;;;6.10;99.90;;;;;;5011760;28;20214;-65
2023/01/14 06:50:45;;;;;;;0.00;0.00;;;6.00;99.90;;;;;;5012007;28;20179;-65
2023/01/14 06:53:10;;;;;;;0.00;0.00;;;6.00;99.90;;;;;;5011134;28;20214;-65
2023/01/14 06:55:36;;;;;;;0.00;0.00;;;6.00;99.90;;;;;;5011878;28;20205;-66
2023/01/14 06:58:01;;;;;;;0.00;0.00;;;6.00;99.90;;;;;;5011962;28;20175;-65
2023/01/14 07:00:27;;;;;;;0.00;0.00;;;6.00;99.90;;;;;;5011530;28;20708;-66
2023/01/14 07:02:52;;;;;;;0.00;0.00;;;6.00;99.90;;;;;;5011852;28;20187;-66
2023/01/14 07:05:18;;;;;;;0.00;0.00;;;6.00;99.90;;;;;;5011920;28;20229;-66
2023/01/14 07:07:48;;;;;;;0.00;0.00;;;6.00;99.90;;;;;;5011327;28;20309;-65
2023/01/14 07:10:15;;;;;;;0.00;0.00;;;6.00;99.90;;;;;;5010303;28;20182;-66
2023/01/14 07:12:49;;;;;;;0.00;0.00;;;6.10;99.90;;;;;;5011405;28;20183;-65
2023/01/14 07:15:16;;;;;;;0.00;0.00;;;6.10;99.90;;;;;;5011540;28;20195;-65
2023/01/14 07:17:43;;;;;;;0.25;0.25;;;6.20;99.90;;;;;;5011464;28;20191;-65
2023/01/14 07:20:09;;;;;;;0.00;0.00;;;6.10;99.90;;;;;;5011312;28;20183;-65
2023/01/14 07:22:35;;;;;;;0.00;0.00;;;6.10;99.90;;;;;;5006804;28;20182;-65
2023/01/14 07:25:01;;;;;;;0.00;0.00;;;6.20;99.90;;;;;;5011132;28;20178;-66
2023/01/14 07:27:28;;;;;;;0.00;0.00;;;6.20;99.90;;;;;;5007557;28;20207;-66
2023/01/14 07:29:53;;;;;;;0.00;0.00;;;6.20;99.90;;;;;;5010948;28;20178;-65
2023/01/14 07:32:19;;;;;;;0.00;0.00;;;6.20;99.90;;;;;;5010920;28;20305;-65
2023/01/14 07:34:44;;;;;;;0.00;0.00;;;6.20;99.90;;;;;;5011522;28;20186;-65
2023/01/14 07:37:10;;;;;;;0.00;0.00;;;6.20;99.90;;;;;;5011131;28;20179;-65
2023/01/14 07:39:36;;;;;;;0.00;0.00;;;6.20;99.90;;;;;;4994186;28;20189;-65
2023/01/14 07:42:01;;;;;;;0.00;0.00;;;6.30;99.90;;;;;;5011435;28;20183;-66
2023/01/14 07:44:27;;;;;;;0.00;0.00;;;6.30;99.90;;;;;;5011678;28;20681;-66
2023/01/14 07:46:55;;;;;;;0.00;0.00;;;6.30;99.90;;;;;;5011332;28;20284;-65
2023/01/14 07:49:22;;;;;;;0.00;0.00;;;6.30;99.90;;;;;;5010662;28;20203;-66
2023/01/14 07:51:48;;;;;;;0.00;0.00;;;6.30;99.90;;;;;;5011630;28;20193;-65
2023/01/14 07:54:14;;;;;;;0.00;0.00;;;6.30;99.90;;;;;;5010993;28;20724;-65
2023/01/14 07:56:40;;;;;;;0.00;0.00;;;6.40;99.90;;;;;;4996202;28;20192;-65
2023/01/14 07:59:05;;;;;;;0.00;0.00;;;6.40;99.90;;;;;;5005554;28;20179;-65
2023/01/14 08:01:31;;;;;;;0.00;0.00;;;6.50;99.90;;;;;;4999591;28;20185;-66
2023/01/14 08:03:58;;;;;;;0.00;0.00;;;6.50;99.90;;;;;;4985788;28;20193;-66
2023/01/14 08:06:24;;;;;;;0.00;0.00;;;6.60;99.90;;;;;;5011018;28;20586;-66
2023/01/14 08:08:49;;;;;;;0.00;0.00;;;6.60;99.90;;;;;;5011509;28;20273;-65
2023/01/14 08:11:15;;;;;;;0.00;0.00;;;6.60;99.90;;;;;;5010815;28;20221;-66
2023/01/14 08:13:40;;;;;;;0.00;0.00;;;6.70;99.90;;;;;;5009550;28;20183;-66
2023/01/14 08:16:08;;;;;;;0.00;0.00;;;6.70;99.90;;;;;;5010522;28;20253;-65
2023/01/14 08:18:35;;;;;;;0.00;0.00;;;6.70;99.90;;;;;;5013954;28;20261;-65
2023/01/14 08:21:03;;;;;;;0.00;0.00;;;6.80;99.90;;;;;;5014478;28;20210;-67
2023/01/14 08:23:29;;;;;;;0.00;0.00;;;6.80;99.90;;;;;;5014585;28;20186;-67
2023/01/14 08:26:05;;;;;;;0.00;0.00;;;6.80;99.90;;;;;;5014340;28;20191;-66
2023/01/14 08:28:32;;;;;;;0.00;0.00;;;6.90;99.90;;;;;;4995990;28;20245;-67
2023/01/14 08:31:05;;;;;;;0.00;0.00;;;6.90;99.90;;;;;;5014310;28;20193;-66
2023/01/14 08:33:31;;;;;;;0.00;0.00;;;7.00;99.90;;;;;;5014123;28;20274;-69
2023/01/14 08:36:06;;;;;;;0.00;0.00;;;7.00;99.90;;;;;;5014173;28;20179;-72
2023/01/14 08:38:35;;;;;;;0.20;0.20;;;7.10;99.90;;;;;;5014011;28;20186;-67
2023/01/14 08:41:06;;;;;;;0.00;0.00;;;7.10;99.90;;;;;;4996459;28;20186;-67
2023/01/14 08:43:31;;;;;;;0.00;0.00;;;7.20;99.90;;;;;;4995996;28;20194;-70
2023/01/14 08:45:58;;;;;;;0.47;0.47;;;7.20;99.90;;;;;;5012545;28;20919;-68
2023/01/14 08:48:24;;;;;;;0.00;0.00;;;7.30;99.90;;;;;;5006295;28;20219;-69
2023/01/14 08:50:49;;;;;;;0.00;0.00;;;7.30;99.90;;;;;;4994682;28;20199;-72
2023/01/14 08:53:15;;;;;;;0.00;0.00;;;7.30;99.90;;;;;;5008868;28;20223;-70
2023/01/14 08:55:41;;;;;;;0.00;0.00;;;7.40;99.90;;;;;;5014157;28;20642;-71
2023/01/14 08:58:07;;;;;;;0.00;0.00;;;7.40;99.90;;;;;;5023575;28;20652;-69
2023/01/14 09:00:32;;;;;;;0.00;0.00;;;7.50;99.90;;;;;;5017768;28;20186;-69
2023/01/14 09:02:59;;;;;;;0.00;0.00;;;7.40;99.90;;;;;;4999124;28;20182;-69
2023/01/14 09:05:24;;;;;;;0.00;0.00;;;7.50;99.90;;;;;;5019374;28;20712;-69
2023/01/14 09:18:56;;;;;;;0.00;0.00;;;7.80;99.90;;;;;;5015623;28;20601;-68
2023/01/14 09:21:23;;;;;;;0.43;0.43;;;7.90;99.90;;;;;;5022083;28;20222;-68
2023/01/14 09:23:48;;;;;;;0.00;0.00;;;8.00;99.90;;;;;;5032454;28;20584;-69
2023/01/14 09:26:14;;;;;;;0.10;0.10;;;8.10;99.90;;;;;;5013617;28;20175;-68
2023/01/14 09:28:39;;;;;;;0.10;0.10;;;8.10;99.90;;;;;;5012473;28;20250;-68
2023/01/14 09:31:05;;;;;;;0.00;0.00;;;8.10;99.90;;;;;;4995972;28;20226;-69
2023/01/14 09:33:30;;;;;;;0.00;0.00;;;8.20;99.90;;;;;;5013287;28;20183;-69
2023/01/14 09:36:00;;;;;;;0.00;0.00;;;8.30;99.90;;;;;;5013991;28;20182;-69
2023/01/14 09:38:25;;;;;;;0.00;0.00;;;8.30;99.90;;;;;;5033150;28;20700;-69
2023/01/14 09:40:51;;;;;;;0.00;0.00;;;8.30;99.90;;;;;;5023372;28;20254;-69
2023/01/14 09:43:19;;;;;;;0.00;0.00;;;8.30;99.90;;;;;;5011269;28;20657;-69
2023/01/14 09:45:47;;;;;;;0.00;0.00;;;8.40;99.90;;;;;;5007202;28;20175;-69
2023/01/14 09:48:16;;;;;;;0.00;0.00;;;8.40;99.90;;;;;;5001497;28;20214;-69
2023/01/14 09:51:09;;;;;;;0.00;0.00;;;8.40;99.90;;;;;;4993629;28;20172;-67
2023/01/14 09:54:06;;;;;;;0.00;0.00;;;8.40;99.90;;;;;;4997128;28;20233;-67
2023/01/14 09:56:38;;;;;;;0.00;0.00;;;8.50;99.90;;;;;;4955918;28;20262;-67
2023/01/14 09:59:28;;;;;;;0.00;0.00;;;8.50;99.90;;;;;;5004166;28;20213;-67
2023/01/14 10:02:18;;;;;;;0.00;0.00;;;8.60;99.90;;;;;;5012552;28;20183;-67
2023/01/14 10:05:04;;;;;;;0.00;0.00;;;8.60;99.90;;;;;;5012879;28;20179;-67
2023/01/14 10:07:30;;;;;;;0.00;0.00;;;8.60;99.90;;;;;;5009795;28;20305;-67
2023/01/14 10:09:58;;;;;;;0.00;0.00;;;8.70;99.90;;;;;;5012395;28;20183;-67
2023/01/14 10:12:40;;;;;;;0.00;0.00;;;8.80;99.90;;;;;;5008237;28;20197;-66
2023/01/14 10:15:17;;;;;;;0.00;0.00;;;8.90;99.90;;;;;;5012700;28;20177;-67
2023/01/14 10:17:50;;;;;;;0.00;0.00;;;9.00;99.90;;;;;;5007359;28;20198;-67
2023/01/14 10:20:24;;;;;;;0.00;0.00;;;9.00;99.90;;;;;;4993220;28;20642;-67
2023/01/14 10:22:59;;;;;;;0.00;0.00;;;9.10;99.90;;;;;;5005456;28;20551;-67
2023/01/14 10:25:25;;;;;;;0.00;0.00;;;9.00;99.90;;;;;;5012536;28;20760;-67
2023/01/14 10:27:56;;;;;;;0.00;0.00;;;9.10;99.90;;;;;;5012441;28;20272;-67
2023/01/14 10:30:33;;;;;;;0.00;0.00;;;9.10;99.90;;;;;;5012582;28;20475;-67
2023/01/14 10:33:03;;;;;;;0.00;0.00;;;9.20;99.90;;;;;;5012608;28;20186;-68
2023/01/14 10:35:34;;;;;;;0.00;0.00;;;9.30;99.90;;;;;;4995694;28;20237;-68
2023/01/14 10:38:01;;;;;;;0.00;0.00;;;9.30;99.90;;;;;;4993020;28;20180;-67
2023/01/14 10:40:29;;;;;;;0.00;0.00;;;9.30;99.90;;;;;;4992267;28;20230;-68
2023/01/14 10:42:56;;;;;;;0.00;0.00;;;9.40;99.90;;;;;;5007455;28;20191;-68
2023/01/14 10:45:22;;;;;;;0.00;0.00;;;9.40;99.90;;;;;;5012329;28;20552;-68
2023/01/14 10:47:49;;;;;;;0.00;0.00;;;9.50;99.90;;;;;;5012020;28;20214;-68
2023/01/14 10:50:21;;;;;;;0.00;0.00;;;9.50;99.90;;;;;;5012256;28;20186;-68
2023/01/14 10:52:49;;;;;;;0.00;0.00;;;9.60;99.90;;;;;;5012085;28;20190;-68
2023/01/14 10:55:21;;;;;;;0.00;0.00;;;9.60;99.90;;;;;;5012018;28;20223;-69
2023/01/14 10:57:58;;;;;;;0.00;0.00;;;9.70;99.90;;;;;;5012041;28;20190;-68
2023/01/14 11:00:32;;;;;;;0.00;0.00;;;9.70;99.90;;;;;;5011553;28;20214;-69
2023/01/14 11:02:59;;;;;;;0.00;0.00;;;9.70;99.90;;;;;;5010298;28;20174;-70
2023/01/14 11:05:28;;;;;;;0.00;0.00;;;9.70;99.90;;;;;;4995526;28;20195;-67
2023/01/14 11:07:57;;;;;;;0.00;0.00;;;9.70;99.90;;;;;;5002349;28;20873;-68
2023/01/14 11:10:26;;;;;;;0.00;0.00;;;9.70;99.90;;;;;;5009139;28;20171;-68
2023/01/14 11:12:52;;;;;;;0.00;0.00;;;9.70;99.90;;;;;;5007010;28;20225;-67
2023/01/14 11:15:36;;;;;;;0.00;0.00;;;9.70;99.90;;;;;;4996715;28;20254;-67
2023/01/14 11:18:27;;;;;;;0.00;0.00;;;9.70;99.90;;;;;;4999172;28;20266;-68
2023/01/14 11:21:12;;;;;;;0.00;0.00;;;9.80;99.90;;;;;;5011998;28;20182;-67
2023/01/14 11:23:40;;;;;;;0.00;0.00;;;9.80;99.90;;;;;;4996746;28;20541;-67
2023/01/14 11:26:12;;;;;;;0.00;0.00;;;9.90;99.90;;;;;;4997416;28;20174;-68
2023/01/14 11:28:46;;;;;;;0.00;0.00;;;9.90;99.90;;;;;;4983537;28;20226;-67
2023/01/14 11:31:13;;;;;;;0.00;0.00;;;10.00;99.90;;;;;;4994112;28;20202;-67
2023/01/14 11:33:50;;;;;;;0.00;0.00;;;10.10;99.90;;;;;;5009505;28;20568;-67
2023/01/14 11:36:25;;;;;;;0.00;0.00;;;10.10;99.90;;;;;;5007997;28;20207;-67
2023/01/14 11:38:53;;;;;;;0.00;0.00;;;10.20;99.90;;;;;;5002830;28;20173;-67
2023/01/14 11:41:34;;;;;;;0.00;0.00;;;10.20;99.90;;;;;;4995613;28;20191;-67
2023/01/14 11:44:15;;;;;;;0.05;0.05;;;10.20;99.90;;;;;;4993326;28;20277;-68
2023/01/14 11:46:44;;;;;;;0.00;0.00;;;10.30;99.90;;;;;;5010219;28;20198;-67
2023/01/14 11:49:12;;;;;;;0.00;0.00;;;10.30;99.90;;;;;;4999056;28;20250;-68
2023/01/14 11:51:40;;;;;;;0.00;0.00;;;10.40;99.90;;;;;;4997670;28;20183;-67
2023/01/14 11:54:16;;;;;;;0.00;0.00;;;10.40;99.90;;;;;;5014966;28;20317;-67
2023/01/14 11:56:43;;;;;;;0.00;0.00;;;10.40;99.90;;;;;;4995655;28;20665;-67
2023/01/14 11:59:35;;;;;;;0.00;0.00;;;10.40;99.90;;;;;;5009314;28;20211;-67
2023/01/14 12:02:32;;;;;;;0.00;0.00;;;10.40;99.90;;;;;;5006343;28;20201;-67
2023/01/14 12:05:02;;;;;;;0.00;0.00;;;10.40;99.90;;;;;;5015171;28;20191;-67
2023/01/14 12:07:43;;;;;;;0.00;0.00;;;10.50;99.90;;;;;;5014927;28;20230;-67
2023/01/14 12:10:15;;;;;;;0.00;0.00;;;10.50;99.90;;;;;;5015080;28;20592;-67
2023/01/14 12:18:49;;;;;;;0.00;0.00;;;10.60;99.90;;;;;;4995274;28;20660;-67
2023/01/14 12:21:20;;;;;;;0.00;0.00;;;10.60;99.90;;;;;;4995430;28;20215;-67
2023/01/14 12:23:54;;;;;;;0.00;0.00;;;10.60;99.90;;;;;;4995197;28;20171;-66
2023/01/14 12:26:25;;;;;;;0.00;0.00;;;10.60;99.90;;;;;;4995065;28;20178;-67
2023/01/14 12:28:57;;;;;;;0.00;0.00;;;10.60;99.90;;;;;;4995094;28;20219;-67
2023/01/14 12:31:35;;;;;;;0.00;0.00;;;10.60;99.90;;;;;;4995262;28;20714;-68
2023/01/14 12:34:34;;;;;;;0.00;0.00;;;10.60;99.90;;;;;;4995085;28;20189;-68
2023/01/14 12:37:22;;;;;;;0.00;0.00;;;10.60;99.90;;;;;;4995011;28;20199;-67
2023/01/14 12:45:44;;;;;;;0.00;0.00;;;10.70;99.90;;;;;;5014674;28;20190;-67
2023/01/14 12:48:16;;;;;;;0.00;0.00;;;10.70;99.90;;;;;;5013352;28;20229;-67
2023/01/14 12:51:01;;;;;;;0.00;0.00;;;10.70;99.90;;;;;;5013783;28;20194;-67
2023/01/14 12:53:30;;;;;;;0.00;0.00;;;10.70;99.90;;;;;;5013980;28;20597;-68
2023/01/14 12:55:59;;;;;;;0.00;0.00;;;10.60;99.90;;;;;;5011912;28;20189;-68
2023/01/14 12:58:29;;;;;;;0.00;0.00;;;10.60;99.90;;;;;;5013954;28;20179;-71
2023/01/14 13:00:59;;;;;;;0.00;0.00;;;10.60;99.90;;;;;;5013677;28;20538;-67
2023/01/14 13:03:33;;;;;;;0.00;0.00;;;10.60;99.90;;;;;;5013689;28;20179;-68
2023/01/14 13:06:10;;;;;;;0.00;0.00;;;10.50;99.90;;;;;;5013764;28;20187;-70
2023/01/14 13:08:37;;;;;;;0.00;0.00;;;10.50;99.90;;;;;;5013915;28;20550;-70
2023/01/14 13:11:11;;;;;;;0.00;0.00;;;10.50;99.90;;;;;;5013852;28;20688;-69
2023/01/14 13:13:41;;;;;;;0.00;0.00;;;10.50;99.90;;;;;;5013799;28;20197;-68
2023/01/14 13:16:31;;;;;;;0.00;0.00;;;10.60;99.90;;;;;;5013211;28;20186;-65
2023/01/14 13:18:59;;;;;;;0.00;0.00;;;10.50;99.90;;;;;;5013786;28;20167;-68
2023/01/14 13:21:56;;;;;;;0.00;0.00;;;10.50;99.90;;;;;;5013564;28;20194;-68
2023/01/14 13:24:34;;;;;;;0.00;0.00;;;10.50;99.90;;;;;;4982907;28;20183;-69
2023/01/14 13:27:04;;;;;;;0.00;0.00;;;10.50;99.90;;;;;;5013470;28;20682;-69
2023/01/14 13:29:32;;;;;;;0.00;0.00;;;10.50;99.90;;;;;;5013097;28;20187;-69
2023/01/14 13:31:59;;;;;;;0.00;0.00;;;10.50;99.90;;;;;;4995089;28;20187;-67
2023/01/14 13:34:26;;;;;;;0.00;0.00;;;10.50;99.90;;;;;;5010898;28;20253;-66
2023/01/14 13:37:00;;;;;;;0.00;0.00;;;10.40;99.90;;;;;;5002768;28;20175;-65
2023/01/14 13:39:27;;;;;;;0.00;0.00;;;10.40;99.90;;;;;;4976198;28;20297;-65
2023/01/14 13:41:55;;;;;;;0.00;0.00;;;10.40;99.90;;;;;;5011779;28;20183;-66
2023/01/14 13:44:22;;;;;;;0.00;0.00;;;10.40;99.90;;;;;;5013053;28;20213;-66
2023/01/14 13:47:00;;;;;;;0.00;0.00;;;10.40;99.90;;;;;;5012966;28;20257;-65